createdAt,value
2023-04-27T00:04:00.260Z,3.20
2023-04-27T00:09:02.230Z,2.47
2023-04-27T00:14:03.925Z,2.67
2023-04-27T00:19:05.524Z,2.20
2023-04-27T00:24:07.531Z,2.22
2023-04-27T00:29:09.138Z,2.10
2023-04-27T00:34:10.981Z,2.72
2023-04-27T00:39:12.830Z,2.38
2023-04-27T00:44:23.066Z,2.15
2023-04-27T00:49:26.908Z,2.10
2023-04-27T00:54:29.015Z,2.03
2023-04-27T00:59:30.952Z,2.30
2023-04-27T01:04:33.212Z,2.33
2023-04-27T01:09:34.907Z,2.25
2023-04-27T01:14:36.838Z,2.28
2023-04-27T01:19:40.324Z,2.80
2023-04-27T01:24:41.973Z,1.98
2023-04-27T01:29:44.631Z,2.10
2023-04-27T01:34:46.244Z,2.20
2023-04-27T01:39:47.809Z,2.00
2023-04-27T01:44:49.405Z,2.00
2023-04-27T01:49:51.318Z,2.13
2023-04-27T01:54:52.918Z,2.10
2023-04-27T01:59:54.492Z,2.47
2023-04-27T02:04:56.217Z,2.05
2023-04-27T02:09:57.850Z,2.13
2023-04-27T02:14:59.427Z,2.20
2023-04-27T02:20:01.298Z,2.28
2023-04-27T02:25:03.510Z,2.58
2023-04-27T02:30:07.636Z,2.63
2023-04-27T02:35:10.171Z,2.28
2023-04-27T02:40:12.060Z,2.30
2023-04-27T02:45:13.817Z,3.22
2023-04-27T02:50:15.394Z,2.53
2023-04-27T02:55:17.258Z,2.10
2023-04-27T03:00:19.927Z,2.58
2023-04-27T03:05:21.647Z,2.15
2023-04-27T03:10:23.212Z,2.17
2023-04-27T03:15:24.785Z,2.40
2023-04-27T03:20:26.803Z,2.58
2023-04-27T03:25:28.434Z,2.08
2023-04-27T03:30:30.138Z,1.98
2023-04-27T03:35:31.726Z,2.40
2023-04-27T03:40:33.306Z,2.72
2023-04-27T03:45:34.880Z,2.50
2023-04-27T03:50:36.563Z,2.50
2023-04-27T03:55:42.458Z,2.53
2023-04-27T04:00:44.235Z,2.57
2023-04-27T04:05:47.350Z,2.92
2023-04-27T04:10:48.953Z,2.67
2023-04-27T04:15:50.603Z,3.13
2023-04-27T04:20:52.202Z,2.80
2023-04-27T04:25:56.832Z,2.22
2023-04-27T04:30:59.788Z,2.78
2023-04-27T04:36:05.318Z,2.38
2023-04-27T04:41:07.362Z,2.63
2023-04-27T04:46:09.043Z,2.47
2023-04-27T04:51:10.761Z,2.47
2023-04-27T04:56:13.747Z,2.30
2023-04-27T05:01:15.507Z,2.60
2023-04-27T05:06:17.108Z,2.78
2023-04-27T05:11:18.767Z,2.50
2023-04-27T05:16:20.482Z,2.00
2023-04-27T05:21:22.307Z,2.30
2023-04-27T05:26:23.915Z,2.38
2023-04-27T05:31:25.549Z,1.92
2023-04-27T05:36:28.661Z,2.10
2023-04-27T05:41:30.895Z,2.40
2023-04-27T05:46:33.379Z,2.85
2023-04-27T05:51:35.050Z,3.13
2023-04-27T05:56:37.934Z,3.35
2023-04-27T06:01:39.619Z,3.10
2023-04-27T06:06:41.213Z,2.75
2023-04-27T06:11:44.046Z,3.00
2023-04-27T06:16:45.648Z,2.97
2023-04-27T06:21:47.302Z,3.00
2023-04-27T06:26:52.017Z,3.10
2023-04-27T06:31:53.629Z,2.72
2023-04-27T06:36:55.277Z,2.80
2023-04-27T06:41:56.944Z,2.85
2023-04-27T06:46:58.527Z,3.00
2023-04-27T06:52:02.912Z,3.00
2023-04-27T06:57:04.699Z,2.40
2023-04-27T07:02:07.736Z,2.80
2023-04-27T07:07:09.366Z,3.38
2023-04-27T07:12:11.367Z,2.15
2023-04-27T07:17:13.148Z,2.38
2023-04-27T07:22:16.160Z,2.10
2023-04-27T07:27:17.879Z,1.90
2023-04-27T07:32:19.656Z,1.80
2023-04-27T07:37:22.402Z,2.10
2023-04-27T07:42:25.214Z,2.33
2023-04-27T07:47:27.273Z,2.30
2023-04-27T07:52:28.836Z,2.00
2023-04-27T07:57:30.680Z,2.10
2023-04-27T08:02:35.012Z,1.95
2023-04-27T08:07:42.558Z,1.92
2023-04-27T08:12:46.320Z,2.10
2023-04-27T08:17:48.395Z,1.80
2023-04-27T08:22:51.276Z,2.00
2023-04-27T08:27:52.874Z,2.17
2023-04-27T08:32:54.923Z,2.30
2023-04-27T08:37:56.904Z,2.35
2023-04-27T08:43:01.174Z,2.08
2023-04-27T08:48:02.936Z,2.67
2023-04-27T08:53:04.583Z,2.20
2023-04-27T08:58:06.314Z,2.10
2023-04-27T09:03:28.783Z,2.10
2023-04-27T09:08:48.212Z,2.20
2023-04-27T09:13:49.813Z,2.00
2023-04-27T09:18:51.730Z,2.40
2023-04-27T09:23:54.518Z,2.80
2023-04-27T09:28:59.571Z,2.10
2023-04-27T09:34:01.979Z,2.35
2023-04-27T09:39:07.061Z,2.50
2023-04-27T09:44:08.791Z,2.28
2023-04-27T09:49:12.352Z,2.83
2023-04-27T09:54:16.043Z,2.95
2023-04-27T09:59:25.398Z,2.85
2023-04-27T10:04:32.900Z,2.47
2023-04-27T10:09:49.344Z,2.65
2023-04-27T10:14:56.713Z,2.80
2023-04-27T10:20:09.827Z,2.60
2023-04-27T10:25:23.394Z,2.83
2023-04-27T10:30:27.527Z,2.70
2023-04-27T10:35:37.667Z,3.10
2023-04-27T10:40:39.493Z,3.08
2023-04-27T10:45:41.965Z,2.88
2023-04-27T10:50:47.710Z,2.70
2023-04-27T10:55:55.657Z,2.73
2023-04-27T11:00:57.243Z,2.78
2023-04-27T11:06:04.723Z,2.92
2023-04-27T11:11:06.821Z,2.40
2023-04-27T11:16:08.495Z,3.40
2023-04-27T11:21:12.798Z,2.30
2023-04-27T11:26:20.285Z,2.70
2023-04-27T11:31:22.180Z,2.72
2023-04-27T11:36:24.621Z,2.70
2023-04-27T11:41:36.820Z,2.20
2023-04-27T11:46:39.188Z,2.10
2023-04-27T11:51:40.905Z,2.65
2023-04-27T11:56:43.048Z,2.55
2023-04-27T12:01:44.868Z,1.98
2023-04-27T12:06:46.474Z,2.67
2023-04-27T12:11:48.188Z,2.38
2023-04-27T12:16:49.902Z,2.38
2023-04-27T12:21:52.956Z,2.10
2023-04-27T12:26:54.552Z,2.25
2023-04-27T12:31:56.488Z,2.42
2023-04-27T12:36:58.141Z,2.05
2023-04-27T12:41:59.800Z,2.22
2023-04-27T12:47:01.434Z,2.28
2023-04-27T12:52:03.109Z,2.30
2023-04-27T12:57:06.659Z,2.28
2023-04-27T13:02:09.849Z,1.92
2023-04-27T13:07:12.150Z,2.10
2023-04-27T13:12:14.197Z,1.90
2023-04-27T13:17:15.836Z,2.20
2023-04-27T13:22:17.457Z,2.08
2023-04-27T13:27:20.412Z,2.10
2023-04-27T13:32:22.753Z,2.42
2023-04-27T13:37:24.569Z,1.85
2023-04-27T13:42:29.551Z,2.13
2023-04-27T13:47:37.328Z,2.17
2023-04-27T13:52:39.784Z,2.00
2023-04-27T13:57:41.496Z,2.20
2023-04-27T14:02:43.153Z,2.50
2023-04-27T14:07:44.933Z,1.90
2023-04-27T14:12:46.673Z,1.80
2023-04-27T14:17:48.320Z,1.92
2023-04-27T14:22:50.169Z,2.38
2023-04-27T14:27:51.830Z,1.90
2023-04-27T14:32:54.029Z,2.03
2023-04-27T14:37:57.265Z,1.90
2023-04-27T14:42:59.503Z,2.35
2023-04-27T14:48:01.641Z,1.85
2023-04-27T14:53:03.275Z,1.90
2023-04-27T14:58:04.959Z,1.80
2023-04-27T15:03:06.865Z,1.90
2023-04-27T15:08:08.861Z,1.90
2023-04-27T15:13:10.586Z,1.75
2023-04-27T15:18:12.533Z,1.80
2023-04-27T15:23:14.358Z,1.88
2023-04-27T15:28:16.886Z,1.77
2023-04-27T15:33:19.057Z,1.75
2023-04-27T15:38:21.107Z,1.70
2023-04-27T15:43:22.787Z,1.70
2023-04-27T15:48:25.433Z,1.67
2023-04-27T15:53:27.135Z,1.38
2023-04-27T15:58:28.749Z,1.73
2023-04-27T16:03:30.712Z,1.73
2023-04-27T16:08:32.639Z,1.60
2023-04-27T16:13:34.258Z,1.50
2023-04-27T16:18:36.090Z,1.77
2023-04-27T16:23:37.783Z,1.73
2023-04-27T16:28:39.394Z,1.60
2023-04-27T16:33:41.325Z,1.50
2023-04-27T16:38:42.950Z,1.40
2023-04-27T16:43:44.554Z,1.50
2023-04-27T16:48:46.486Z,1.70
2023-04-27T16:53:48.226Z,1.67
2023-04-27T16:58:49.824Z,5.53
2023-04-27T17:03:51.634Z,5.95
2023-04-27T17:08:53.822Z,2.00
2023-04-27T17:13:55.584Z,1.48
2023-04-27T17:18:57.322Z,1.52
2023-04-27T17:23:59.018Z,1.58
2023-04-27T17:29:01.798Z,1.85
2023-04-27T17:34:03.627Z,1.30
2023-04-27T17:39:05.334Z,1.48
2023-04-27T17:44:06.987Z,1.70
2023-04-27T17:49:08.597Z,1.83
2023-04-27T17:54:11.747Z,1.60
2023-04-27T17:59:13.651Z,1.58
2023-04-27T18:04:15.565Z,1.40
2023-04-27T18:09:17.680Z,1.70
2023-04-27T18:14:19.600Z,1.75
2023-04-27T18:19:21.514Z,1.77
2023-04-27T18:24:23.156Z,1.90
2023-04-27T18:29:24.768Z,2.00
2023-04-27T18:34:27.226Z,1.80
2023-04-27T18:39:29.306Z,1.73
2023-04-27T18:44:31.383Z,1.90
2023-04-27T18:49:33.474Z,2.65
2023-04-27T18:54:35.468Z,2.10
2023-04-27T18:59:40.510Z,2.72
2023-04-27T19:04:45.571Z,1.63
2023-04-27T19:09:57.313Z,2.05
2023-04-27T19:14:59.406Z,1.92
2023-04-27T19:20:01.317Z,2.47
2023-04-27T19:25:06.876Z,2.20
2023-04-27T19:30:09.219Z,2.10
2023-04-27T19:35:12.558Z,2.38
2023-04-27T19:40:15.299Z,2.13
2023-04-27T19:45:19.133Z,1.73
2023-04-27T19:50:21.421Z,2.40
2023-04-27T19:55:23.560Z,2.40
2023-04-27T20:00:25.595Z,2.10
2023-04-27T20:05:27.810Z,2.55
2023-04-27T20:10:29.656Z,2.65
2023-04-27T20:15:31.309Z,2.50
2023-04-27T20:20:32.897Z,2.58
2023-04-27T20:25:34.491Z,2.95
2023-04-27T20:30:36.103Z,2.72
2023-04-27T20:35:37.768Z,2.70
2023-04-27T20:40:40.046Z,3.00
2023-04-27T20:45:42.464Z,3.40
2023-04-27T20:50:44.031Z,3.50
2023-04-27T20:55:46.348Z,3.10
2023-04-27T21:00:47.964Z,4.53
2023-04-27T21:05:49.643Z,4.47
2023-04-27T21:10:51.436Z,4.20
2023-04-27T21:15:53.034Z,3.50
2023-04-27T21:20:54.614Z,3.00
2023-04-27T21:25:56.322Z,3.63
2023-04-27T21:30:57.919Z,3.33
2023-04-27T21:35:59.689Z,3.10
2023-04-27T21:41:01.302Z,2.72
2023-04-27T21:46:02.884Z,2.80
2023-04-27T21:51:04.544Z,3.30
2023-04-27T21:56:06.644Z,2.92
2023-04-27T22:01:08.195Z,3.30
2023-04-27T22:06:09.945Z,3.50
2023-04-27T22:11:11.580Z,3.10
2023-04-27T22:16:13.886Z,2.85
2023-04-27T22:21:16.100Z,3.30
2023-04-27T22:26:17.689Z,3.28
2023-04-27T22:31:19.329Z,3.03
2023-04-27T22:36:21.132Z,2.70
2023-04-27T22:41:22.703Z,3.13
2023-04-27T22:46:24.457Z,3.42
2023-04-27T22:51:27.563Z,3.10
2023-04-27T22:56:29.141Z,3.03
2023-04-27T23:01:30.852Z,3.00
2023-04-27T23:06:32.519Z,2.90
2023-04-27T23:11:34.258Z,3.42
2023-04-27T23:16:35.902Z,3.30
2023-04-27T23:21:37.463Z,2.90
2023-04-27T23:26:39.058Z,3.38
2023-04-27T23:31:41.313Z,3.05
2023-04-27T23:36:43.159Z,3.50
2023-04-27T23:41:44.753Z,3.50
2023-04-27T23:46:46.326Z,2.95
2023-04-27T23:51:49.989Z,3.15
2023-04-27T23:56:51.862Z,3.25
